HOURLY OBS INDEX

062

Central Tablelands - north

MUDGEE AIRPORT AWS

Site: 062101
Alt: 471.0m
4km NE of MUDGEE


  Time     Wind        Temp  DP   Baro     Rain since   Rain past  Vis(m), Cloud(base in m), Weather
  local        km/h                         9am  last   hr   10m    
Sun 09:00    S 11/ 13   9.7  4.7  1020.0    0.0   0.0   0.0   0.0   10000 
Sun 09:30    S  9/ 13  12.2  6.0  1019.7    0.0   0.0   0.0   0.0   10000 
Sun 10:00    S  4/  9  14.6  6.2  1019.6    0.0   0.0   0.0   0.0   10000 
Sun 10:30  SSE  7/ 11  15.6  5.8  1018.9    0.0   0.0   0.0   0.0   10000 
Sun 11:00    S  4/  9  17.6  6.8  1018.3    0.0   0.0   0.0   0.0   10000 
Sun 11:30  WSW  7/ 13  18.4  5.9  1017.6    0.0   0.0   0.0   0.0   10000 
Sun 12:00  NNW 15/ 22  20.8  4.8  1016.8    0.0   0.0   0.0   0.0   10000 
Sun 12:30    N 24/ 32  21.4  1.7  1016.1    0.0   0.0   0.0   0.0   10000 
Sun 13:00  NNW 20/ 30  22.5  0.4  1015.4    0.0   0.0   0.0   0.0   10000 
Sun 13:30    N 24/ 32  22.6  1.0  1014.9    0.0   0.0   0.0   0.0   10000 
Sun 14:00    N 30/ 41  23.1 -1.1  1014.2    0.0   0.0   0.0   0.0   10000 
Sun 14:30    N 28/ 35  23.4 -1.5  1013.5    0.0   0.0   0.0   0.0   10000 

NULLO MOUNTAIN AWS

Site: 062100
Alt: 1130.0m
62km ESE of MUDGEE


  Time     Wind        Temp  DP   Baro     Rain since   Rain past  Vis(m), Cloud(base in m), Weather
  local        km/h                         9am  last   hr   10m    
Sun 09:00    N  9/ 13  13.1 -1.2  ------    0.0   0.0   0.0   0.0   ----- 
Sun 09:30    N 11/ 15  13.9 -2.1  ------    0.0   0.0   0.0   0.0   ----- 
Sun 10:00    N 11/ 13  14.4  0.3  ------    0.0   0.0   0.0   0.0   ----- 
Sun 10:30    N  7/ 13  15.7  0.3  ------    0.0   0.0   0.0   0.0   ----- 
Sun 11:00    N 11/ 17  15.6  0.2  ------    0.0   0.0   0.0   0.0   ----- 
Sun 11:30    N 15/ 26  15.5 -0.7  ------    0.0   0.0   0.0   0.0   ----- 
Sun 12:00    N 13/ 22  16.2  0.3  ------    0.0   0.0   0.0   0.0   ----- 
Sun 12:30    N 13/ 22  16.4  0.5  ------    0.0   0.0   0.0   0.0   ----- 
Sun 13:00    N 17/ 24  16.9 -1.2  ------    0.0   0.0   0.0   0.0   ----- 
Sun 13:30  NNW 20/ 41  16.1 -3.4  ------    0.0   0.0   0.0   0.0   ----- 
Sun 14:00    N 24/ 37  15.9 -2.6  ------    0.0   0.0   0.0   0.0   ----- 
Sun 14:30  NNW 15/ 26  16.2 -0.9  ------    0.0   0.0   0.0   0.0   -----